createdAt,value
2018-10-21T00:02:27.310Z,102683.38
2018-10-21T00:05:31.904Z,102674.75
2018-10-21T00:08:37.125Z,102672.73
2018-10-21T00:11:41.882Z,102672.20
2018-10-21T00:14:47.130Z,102666.28
2018-10-21T00:17:51.874Z,102661.55
2018-10-21T00:20:58.049Z,102658.48
2018-10-21T00:24:02.872Z,102663.41
2018-10-21T00:27:08.596Z,102658.31
2018-10-21T00:30:14.086Z,102656.45
2018-10-21T00:33:19.202Z,102654.25
2018-10-21T00:36:24.637Z,102642.74
2018-10-21T00:39:29.058Z,102651.70
2018-10-21T00:42:33.900Z,102645.78
2018-10-21T00:45:38.362Z,102652.23
2018-10-21T00:48:42.789Z,102643.57
2018-10-21T00:51:47.577Z,102649.52
2018-10-21T00:54:52.056Z,102655.95
2018-10-21T00:57:56.592Z,102658.69
2018-10-21T01:01:01.959Z,102655.97
2018-10-21T01:04:06.916Z,102656.98
2018-10-21T01:07:11.296Z,102656.65
2018-10-21T01:10:15.854Z,102657.67
2018-10-21T01:13:20.409Z,102651.25
2018-10-21T01:16:25.336Z,102650.91
2018-10-21T01:19:29.859Z,102641.08
2018-10-21T01:22:34.173Z,102646.16
2018-10-21T01:25:39.601Z,102643.27
2018-10-21T01:28:43.988Z,102641.08
2018-10-21T01:31:48.288Z,102641.92
2018-10-21T01:34:53.164Z,102640.89
2018-10-21T01:37:57.656Z,102644.80
2018-10-21T01:41:01.944Z,102634.97
2018-10-21T01:44:06.256Z,102628.53
2018-10-21T01:47:11.524Z,102630.89
2018-10-21T01:50:16.060Z,102628.88
2018-10-21T01:53:21.436Z,102620.91
2018-10-21T01:56:25.829Z,102624.62
2018-10-21T01:59:30.837Z,102625.98
2018-10-21T02:02:35.179Z,102625.31
2018-10-21T02:05:39.909Z,102628.70
2018-10-21T02:08:44.758Z,102624.30
2018-10-21T02:11:49.074Z,102620.91
2018-10-21T02:14:53.423Z,102616.83
2018-10-21T02:17:57.753Z,102612.27
2018-10-21T02:21:02.080Z,102620.41
2018-10-21T02:24:06.402Z,102616.33
2018-10-21T02:27:10.779Z,102615.97
2018-10-21T02:30:17.133Z,102605.30
2018-10-21T02:33:21.598Z,102605.81
2018-10-21T02:36:25.806Z,102603.61
2018-10-21T02:39:30.092Z,102610.53
2018-10-21T02:42:34.459Z,102607.67
2018-10-21T02:45:38.761Z,102605.47
2018-10-21T02:48:43.761Z,102610.54
2018-10-21T02:51:53.178Z,102606.45
2018-10-21T02:54:57.480Z,102605.43
2018-10-21T02:58:01.744Z,102603.91
2018-10-21T03:01:06.161Z,102615.58
2018-10-21T03:04:10.459Z,102616.25
2018-10-21T03:07:14.772Z,102619.66
2018-10-21T03:10:19.050Z,102616.58
2018-10-21T03:13:23.375Z,102602.87
2018-10-21T03:16:27.682Z,102603.04
2018-10-21T03:19:32.001Z,102607.95
2018-10-21T03:22:36.302Z,102604.75
2018-10-21T03:25:40.765Z,102597.47
2018-10-21T03:28:45.042Z,102589.87
2018-10-21T03:31:49.384Z,102598.16
2018-10-21T03:34:53.689Z,102596.64
2018-10-21T03:37:58.618Z,102600.03
2018-10-21T03:41:02.881Z,102598.34
2018-10-21T03:44:07.160Z,102599.03
2018-10-21T03:47:11.489Z,102599.19
2018-10-21T03:50:15.813Z,102600.54
2018-10-21T03:53:20.072Z,102600.56
2018-10-21T03:56:24.369Z,102604.61
2018-10-21T03:59:28.664Z,102599.05
2018-10-21T04:02:32.969Z,102599.36
2018-10-21T04:05:37.476Z,102591.24
2018-10-21T04:08:41.778Z,102601.41
2018-10-21T04:11:46.077Z,102600.89
2018-10-21T04:14:50.357Z,102600.70
2018-10-21T04:17:54.944Z,102589.55
2018-10-21T04:20:59.282Z,102591.74
2018-10-21T04:24:03.602Z,102591.39
2018-10-21T04:27:07.924Z,102583.23
2018-10-21T04:30:19.110Z,102579.18
2018-10-21T04:33:53.666Z,102574.77
2018-10-21T04:37:11.923Z,102578.98
2018-10-21T04:40:22.784Z,102575.75
2018-10-21T04:43:27.084Z,102581.69
2018-10-21T04:46:31.479Z,102579.98
2018-10-21T04:49:35.694Z,102574.35
2018-10-21T04:52:40.126Z,102569.11
2018-10-21T04:55:44.401Z,102578.08
2018-10-21T04:58:48.714Z,102569.59
2018-10-21T05:01:53.053Z,102573.63
2018-10-21T05:04:57.333Z,102568.38
2018-10-21T05:08:01.682Z,102569.03
2018-10-21T05:11:06.075Z,102569.22
2018-10-21T05:14:10.377Z,102571.58
2018-10-21T05:17:14.650Z,102569.19
2018-10-21T05:20:18.973Z,102570.19
2018-10-21T05:23:23.261Z,102566.47
2018-10-21T05:26:27.545Z,102565.26
2018-10-21T05:29:31.981Z,102571.55
2018-10-21T05:32:36.306Z,102562.69
2018-10-21T05:35:40.593Z,102573.41
2018-10-21T05:38:44.905Z,102569.48
2018-10-21T05:41:49.198Z,102566.77
2018-10-21T05:44:53.507Z,102564.55
2018-10-21T05:47:57.790Z,102570.13
2018-10-21T05:51:02.090Z,102566.23
2018-10-21T05:54:10.029Z,102568.77
2018-10-21T05:57:14.394Z,102562.48
2018-10-21T06:00:19.994Z,102564.52
2018-10-21T06:03:24.296Z,102559.41
2018-10-21T06:06:28.625Z,102557.87
2018-10-21T06:09:32.921Z,102559.41
2018-10-21T06:12:37.276Z,102556.51
2018-10-21T06:15:41.607Z,102565.48
2018-10-21T06:18:45.959Z,102566.16
2018-10-21T06:21:50.276Z,102572.41
2018-10-21T06:24:54.548Z,102566.80
2018-10-21T06:27:59.989Z,102571.23
2018-10-21T06:31:04.328Z,102566.98
2018-10-21T06:34:08.770Z,102571.88
2018-10-21T06:37:13.078Z,102566.76
2018-10-21T06:40:17.398Z,102570.98
2018-10-21T06:43:21.956Z,102571.16
2018-10-21T06:46:26.285Z,102565.03
2018-10-21T06:49:30.848Z,102562.45
2018-10-21T06:52:35.361Z,102567.71
2018-10-21T06:55:39.908Z,102566.67
2018-10-21T06:58:44.268Z,102570.39
2018-10-21T07:01:48.756Z,102572.06
2018-10-21T07:04:53.226Z,102567.62
2018-10-21T07:07:57.582Z,102568.62
2018-10-21T07:11:02.085Z,102571.51
2018-10-21T07:14:06.631Z,102570.42
2018-10-21T07:17:10.947Z,102567.52
2018-10-21T07:20:15.291Z,102567.64
2018-10-21T07:23:19.621Z,102561.33
2018-10-21T07:26:24.075Z,102563.86
2018-10-21T07:29:29.224Z,102571.12
2018-10-21T07:32:33.911Z,102574.65
2018-10-21T07:35:38.643Z,102569.70
2018-10-21T07:38:43.389Z,102572.03
2018-10-21T07:41:47.897Z,102574.52
2018-10-21T07:44:52.184Z,102572.79
2018-10-21T07:47:56.649Z,102575.63
2018-10-21T07:51:01.249Z,102578.65
2018-10-21T07:54:06.213Z,102575.37
2018-10-21T07:57:10.831Z,102575.80
2018-10-21T08:00:16.512Z,102570.19
2018-10-21T08:03:21.287Z,102582.84
2018-10-21T08:06:42.785Z,102585.77
2018-10-21T08:09:48.147Z,102574.38
2018-10-21T08:12:52.716Z,102565.63
2018-10-21T08:15:57.035Z,102558.95
2018-10-21T08:19:03.114Z,102560.24
2018-10-21T08:22:07.685Z,102561.51
2018-10-21T08:25:13.370Z,102554.69
2018-10-21T08:28:18.093Z,102555.45
2018-10-21T08:31:22.949Z,102558.06
2018-10-21T08:34:28.204Z,102556.23
2018-10-21T08:37:32.897Z,102556.98
2018-10-21T08:40:38.486Z,102551.72
2018-10-21T08:43:43.588Z,102552.77
2018-10-21T08:46:47.896Z,102557.89
2018-10-21T08:49:52.259Z,102559.24
2018-10-21T08:52:56.548Z,102558.80
2018-10-21T08:56:00.952Z,102550.67
2018-10-21T08:59:05.228Z,102552.16
2018-10-21T09:02:09.670Z,102547.06
2018-10-21T09:05:15.558Z,102556.91
2018-10-21T09:08:20.141Z,102552.91
2018-10-21T09:11:24.395Z,102549.82
2018-10-21T09:14:28.670Z,102545.88
2018-10-21T09:17:32.978Z,102537.63
2018-10-21T09:20:37.243Z,102540.53
2018-10-21T09:23:41.521Z,102537.02
2018-10-21T09:26:45.825Z,102540.50
2018-10-21T09:29:50.089Z,102539.84
2018-10-21T09:32:54.353Z,102533.78
2018-10-21T09:35:58.669Z,102537.19
2018-10-21T09:39:02.935Z,102530.16
2018-10-21T09:42:07.313Z,102532.27
2018-10-21T09:45:16.097Z,102535.23
2018-10-21T09:48:20.377Z,102525.75
2018-10-21T09:51:24.638Z,102520.61
2018-10-21T09:54:28.907Z,102527.12
2018-10-21T09:57:33.188Z,102527.56
2018-10-21T10:00:42.610Z,102523.45
2018-10-21T10:03:46.898Z,102523.88
2018-10-21T10:06:51.181Z,102519.13
2018-10-21T10:09:55.560Z,102514.28
2018-10-21T10:12:59.825Z,102518.89
2018-10-21T10:16:04.144Z,102518.37
2018-10-21T10:19:08.473Z,102512.59
2018-10-21T10:22:12.870Z,102505.11
2018-10-21T10:25:17.134Z,102507.55
2018-10-21T10:28:21.366Z,102498.91
2018-10-21T10:31:25.716Z,102504.47
2018-10-21T10:34:30.061Z,102501.73
2018-10-21T10:37:34.334Z,102504.58
2018-10-21T10:40:38.616Z,102495.65
2018-10-21T10:43:42.972Z,102501.54
2018-10-21T10:46:47.267Z,102492.25
2018-10-21T10:49:51.549Z,102492.67
2018-10-21T10:52:55.861Z,102488.67
2018-10-21T10:56:00.195Z,102484.23
2018-10-21T10:59:05.431Z,102486.16
2018-10-21T11:02:09.690Z,102480.69
2018-10-21T11:05:14.008Z,102470.77
2018-10-21T11:08:18.277Z,102472.57
2018-10-21T11:11:22.535Z,102473.52
2018-10-21T11:14:26.808Z,102473.75
2018-10-21T11:17:31.101Z,102471.45
2018-10-21T11:20:35.362Z,102467.13
2018-10-21T11:23:39.697Z,102469.96
2018-10-21T11:26:44.030Z,102461.33
2018-10-21T11:29:49.258Z,102462.49
2018-10-21T11:32:53.525Z,102462.41
2018-10-21T11:35:58.218Z,102451.46
2018-10-21T11:39:02.509Z,102454.08
2018-10-21T11:42:07.256Z,102455.03
2018-10-21T11:45:11.610Z,102454.51
2018-10-21T11:48:15.968Z,102450.20
2018-10-21T11:51:20.265Z,102450.29
2018-10-21T11:54:24.589Z,102445.12
2018-10-21T11:57:28.848Z,102442.17
2018-10-21T12:00:33.121Z,102439.95
2018-10-21T12:03:37.388Z,102440.03
2018-10-21T12:06:41.676Z,102434.97
2018-10-21T12:09:46.175Z,102437.20
2018-10-21T12:12:50.451Z,102440.53
2018-10-21T12:15:54.742Z,102439.16
2018-10-21T12:18:59.059Z,102445.06
2018-10-21T12:22:03.394Z,102439.59
2018-10-21T12:25:07.660Z,102436.33
2018-10-21T12:28:11.997Z,102430.34
2018-10-21T12:31:16.303Z,102422.13
2018-10-21T12:34:20.570Z,102418.73
2018-10-21T12:37:24.847Z,102424.38
2018-10-21T12:40:29.143Z,102425.23
2018-10-21T12:43:33.407Z,102422.20
2018-10-21T12:46:38.088Z,102417.36
2018-10-21T12:49:42.319Z,102419.16
2018-10-21T12:52:46.567Z,102415.45
2018-10-21T12:55:51.116Z,102410.96
2018-10-21T12:58:55.419Z,102405.05
2018-10-21T13:01:59.686Z,102410.96
2018-10-21T13:05:03.950Z,102406.95
2018-10-21T13:08:08.216Z,102407.72
2018-10-21T13:11:12.515Z,102402.75
2018-10-21T13:14:16.764Z,102403.70
2018-10-21T13:17:21.476Z,102403.92
2018-10-21T13:20:25.756Z,102400.33
2018-10-21T13:23:30.033Z,102391.59
2018-10-21T13:26:34.324Z,102401.81
2018-10-21T13:29:38.591Z,102392.75
2018-10-21T13:32:42.865Z,102390.65
2018-10-21T13:35:47.091Z,102386.84
2018-10-21T13:38:51.375Z,102378.84
2018-10-21T13:41:55.675Z,102386.84
2018-10-21T13:44:59.933Z,102379.39
2018-10-21T13:48:04.250Z,102382.22
2018-10-21T13:51:08.501Z,102368.01
2018-10-21T13:54:12.776Z,102374.85
2018-10-21T13:57:17.024Z,102372.11
2018-10-21T14:00:21.311Z,102367.59
2018-10-21T14:03:25.595Z,102359.89
2018-10-21T14:06:29.854Z,102354.20
2018-10-21T14:09:34.100Z,102353.16
2018-10-21T14:12:38.359Z,102345.77
2018-10-21T14:15:42.604Z,102348.20
2018-10-21T14:18:46.877Z,102346.12
2018-10-21T14:21:51.183Z,102345.16
2018-10-21T14:24:55.480Z,102334.08
2018-10-21T14:27:59.706Z,102330.05
2018-10-21T14:31:04.084Z,102333.56
2018-10-21T14:34:08.268Z,102334.80
2018-10-21T14:37:12.573Z,102337.84
2018-10-21T14:40:16.813Z,102331.42
2018-10-21T14:43:21.994Z,102330.10
2018-10-21T14:46:26.268Z,102335.36
2018-10-21T14:49:30.562Z,102324.09
2018-10-21T14:52:35.018Z,102326.83
2018-10-21T14:55:39.309Z,102323.49
2018-10-21T14:58:43.628Z,102319.18
2018-10-21T15:01:47.926Z,102330.15
2018-10-21T15:04:52.188Z,102330.87
2018-10-21T15:07:56.507Z,102326.45
2018-10-21T15:11:00.814Z,102319.09
2018-10-21T15:14:05.380Z,102327.92
2018-10-21T15:17:09.658Z,102323.42
2018-10-21T15:20:14.530Z,102324.67
2018-10-21T15:23:19.019Z,102316.67
2018-10-21T15:26:23.285Z,102314.67
2018-10-21T15:29:27.520Z,102313.00
2018-10-21T15:32:31.799Z,102316.17
2018-10-21T15:35:36.057Z,102312.58
2018-10-21T15:38:40.329Z,102306.50
2018-10-21T15:41:44.594Z,102302.40
2018-10-21T15:44:48.858Z,102298.51
2018-10-21T15:47:53.103Z,102297.74
2018-10-21T15:50:57.353Z,102303.00
2018-10-21T15:54:01.616Z,102296.59
2018-10-21T15:57:06.283Z,102292.05
2018-10-21T16:00:12.101Z,102297.87
2018-10-21T16:03:16.371Z,102293.42
2018-10-21T16:06:20.640Z,102294.06
2018-10-21T16:09:24.913Z,102297.42
2018-10-21T16:12:29.211Z,102295.64
2018-10-21T16:15:33.468Z,102290.59
2018-10-21T16:18:37.777Z,102286.80
2018-10-21T16:21:42.027Z,102288.08
2018-10-21T16:24:46.290Z,102289.31
2018-10-21T16:27:50.611Z,102287.86
2018-10-21T16:30:54.872Z,102288.88
2018-10-21T16:33:59.173Z,102287.52
2018-10-21T16:37:03.434Z,102291.63
2018-10-21T16:40:11.105Z,102295.00
2018-10-21T16:43:15.414Z,102291.55
2018-10-21T16:46:19.646Z,102285.64
2018-10-21T16:49:23.900Z,102288.30
2018-10-21T16:52:28.159Z,102285.86
2018-10-21T16:55:32.426Z,102285.86
2018-10-21T16:58:36.676Z,102281.23
2018-10-21T17:01:40.962Z,102277.56
2018-10-21T17:04:45.393Z,102278.73
2018-10-21T17:07:49.647Z,102290.73
2018-10-21T17:10:53.990Z,102281.68
2018-10-21T17:13:58.206Z,102287.37
2018-10-21T17:17:02.486Z,102283.78
2018-10-21T17:20:11.394Z,102289.47
2018-10-21T17:23:15.655Z,102283.39
2018-10-21T17:26:19.909Z,102286.73
2018-10-21T17:29:24.163Z,102281.70
2018-10-21T17:32:28.456Z,102282.98
2018-10-21T17:35:33.547Z,102284.05
2018-10-21T17:38:37.829Z,102281.48
2018-10-21T17:41:42.185Z,102285.93
2018-10-21T17:44:46.484Z,102283.83
2018-10-21T17:47:50.761Z,102284.26
2018-10-21T17:50:55.017Z,102283.50
2018-10-21T17:53:59.273Z,102277.72
2018-10-21T17:57:03.547Z,102278.45
2018-10-21T18:00:10.468Z,102278.45
2018-10-21T18:03:14.783Z,102279.52
2018-10-21T18:06:19.034Z,102280.03
2018-10-21T18:09:23.318Z,102274.48
2018-10-21T18:12:27.572Z,102275.93
2018-10-21T18:15:31.825Z,102277.42
2018-10-21T18:18:36.308Z,102274.69
2018-10-21T18:21:41.254Z,102285.72
2018-10-21T18:24:45.568Z,102280.45
2018-10-21T18:27:49.811Z,102276.27
2018-10-21T18:30:54.132Z,102281.95
2018-10-21T18:33:58.374Z,102279.94
2018-10-21T18:37:02.698Z,102280.67
2018-10-21T18:40:08.866Z,102276.36
2018-10-21T18:43:13.074Z,102273.31
2018-10-21T18:46:17.391Z,102274.47
2018-10-21T18:49:21.580Z,102272.89
2018-10-21T18:52:25.836Z,102271.19
2018-10-21T18:55:30.110Z,102271.61
2018-10-21T18:58:34.437Z,102271.91
2018-10-21T19:01:38.639Z,102268.53
2018-10-21T19:04:42.892Z,102268.22
2018-10-21T19:07:47.154Z,102263.81
2018-10-21T19:10:51.440Z,102259.50
2018-10-21T19:13:55.708Z,102263.48
2018-10-21T19:16:59.978Z,102269.08
2018-10-21T19:20:04.273Z,102261.39
2018-10-21T19:23:08.566Z,102268.01
2018-10-21T19:26:12.822Z,102258.95
2018-10-21T19:29:17.101Z,102260.44
2018-10-21T19:32:21.329Z,102254.66
2018-10-21T19:35:25.588Z,102252.88
2018-10-21T19:38:29.851Z,102253.09
2018-10-21T19:41:34.123Z,102250.87
2018-10-21T19:44:38.378Z,102249.50
2018-10-21T19:47:42.940Z,102246.77
2018-10-21T19:50:47.204Z,102247.50
2018-10-21T19:53:51.504Z,102236.69
2018-10-21T19:56:55.777Z,102243.73
2018-10-21T20:00:00.081Z,102240.06
2018-10-21T20:03:04.336Z,102234.27
2018-10-21T20:06:09.706Z,102240.50
2018-10-21T20:09:14.619Z,102239.95
2018-10-21T20:12:20.296Z,102235.03
2018-10-21T20:15:25.658Z,102227.14
2018-10-21T20:18:32.095Z,102235.16
2018-10-21T20:21:39.070Z,102229.78
2018-10-21T20:24:44.384Z,102223.04
2018-10-21T20:27:49.808Z,102220.94
2018-10-21T20:30:55.230Z,102208.00
2018-10-21T20:34:01.044Z,102223.25
2018-10-21T20:37:05.791Z,102219.48
2018-10-21T20:40:12.353Z,102215.27
2018-10-21T20:43:18.569Z,102208.76
2018-10-21T20:46:26.276Z,102216.02
2018-10-21T20:49:32.274Z,102220.73
2018-10-21T20:52:38.547Z,102218.98
2018-10-21T20:55:43.498Z,102214.45
2018-10-21T20:58:48.743Z,102208.14
2018-10-21T21:01:54.957Z,102202.97
2018-10-21T21:05:00.689Z,102207.11
2018-10-21T21:08:06.078Z,102206.98
2018-10-21T21:11:12.138Z,102210.78
2018-10-21T21:14:17.918Z,102204.80
2018-10-21T21:17:24.441Z,102210.98
2018-10-21T21:20:30.647Z,102212.77
2018-10-21T21:23:36.730Z,102208.88
2018-10-21T21:26:41.598Z,102213.71
2018-10-21T21:29:46.596Z,102213.48
2018-10-21T21:32:51.273Z,102210.97
2018-10-21T21:35:56.437Z,102218.01
2018-10-21T21:39:02.450Z,102214.67
2018-10-21T21:42:07.280Z,102207.62
2018-10-21T21:45:12.077Z,102206.36
2018-10-21T21:48:17.055Z,102197.42
2018-10-21T21:51:22.108Z,102197.73
2018-10-21T21:54:27.372Z,102195.22
2018-10-21T21:57:33.081Z,102185.66
2018-10-21T22:00:38.419Z,102192.71
2018-10-21T22:03:43.474Z,102196.47
2018-10-21T22:06:48.382Z,102195.32
2018-10-21T22:09:53.872Z,102195.23
2018-10-21T22:12:59.804Z,102203.82
2018-10-21T22:16:04.834Z,102208.05
2018-10-21T22:19:11.631Z,102196.99
2018-10-21T22:22:18.031Z,102196.69
2018-10-21T22:25:24.589Z,102193.02
2018-10-21T22:28:29.735Z,102194.92
2018-10-21T22:31:34.431Z,102199.10
2018-10-21T22:34:39.009Z,102186.29
2018-10-21T22:37:43.510Z,102188.80
2018-10-21T22:40:48.230Z,102183.55
2018-10-21T22:43:52.644Z,102185.98
2018-10-21T22:46:56.944Z,102186.61
2018-10-21T22:50:01.452Z,102190.28
2018-10-21T22:53:05.828Z,102195.20
2018-10-21T22:56:10.120Z,102189.85
2018-10-21T22:59:14.422Z,102189.64
2018-10-21T23:02:18.792Z,102191.10
2018-10-21T23:05:23.755Z,102183.66
2018-10-21T23:08:28.089Z,102186.39
2018-10-21T23:11:32.435Z,102180.72
2018-10-21T23:14:39.126Z,102174.42
2018-10-21T23:17:43.657Z,102178.82
2018-10-21T23:20:47.971Z,102180.62
2018-10-21T23:23:52.292Z,102183.23
2018-10-21T23:26:56.580Z,102175.46
2018-10-21T23:30:00.911Z,102178.92
2018-10-21T23:33:05.238Z,102175.77
2018-10-21T23:36:09.589Z,102181.66
2018-10-21T23:39:13.892Z,102175.98
2018-10-21T23:42:18.292Z,102176.41
2018-10-21T23:45:22.580Z,102175.46
2018-10-21T23:48:26.938Z,102171.88
2018-10-21T23:51:31.233Z,102174.40
2018-10-21T23:54:35.693Z,102164.92
2018-10-21T23:57:39.988Z,102175.25
